Time;durP1;ratioP1;P1;durP2;ratioP2;P2;SDS_P1;SDS_P2;PMS_P1;PMS_P2;Temp;Humidity;BMP_temperature;BMP_pressure;BME280_temperature;BME280_humidity;BME280_pressure;Samples;Min_cycle;Max_cycle;Signal;HPM_P1;HPM_P2
2023/11/13 00:00:19;;;;;;;10.40;6.60;;;;;;;8.75;100.00;99737.70;105527;1256;71392;-56
2023/11/13 00:02:47;;;;;;;8.90;6.70;;;;;;;8.76;100.00;99745.23;105740;1253;61675;-56
2023/11/13 00:05:15;;;;;;;8.90;6.40;;;;;;;8.76;100.00;99752.27;105762;1253;60044;-59
2023/11/13 00:07:43;;;;;;;10.30;7.60;;;;;;;8.78;100.00;99753.16;105651;1256;73259;-56
2023/11/13 00:10:11;;;;;;;12.00;7.50;;;;;;;8.80;100.00;99757.59;105663;1258;66878;-56
2023/11/13 00:12:39;;;;;;;9.50;7.40;;;;;;;8.80;100.00;99762.34;105572;1253;72690;-57
2023/11/13 00:15:08;;;;;;;9.80;7.40;;;;;;;8.82;100.00;99763.95;105914;1258;60435;-57
2023/11/13 00:17:35;;;;;;;9.50;6.90;;;;;;;8.83;100.00;99762.77;105637;1253;60663;-56
2023/11/13 00:20:05;;;;;;;8.90;6.90;;;;;;;8.84;100.00;99762.63;105743;1258;72871;-57
2023/11/13 00:22:33;;;;;;;10.20;6.80;;;;;;;8.84;100.00;99759.46;105666;1258;66704;-58
2023/11/13 00:25:01;;;;;;;8.30;6.50;;;;;;;8.84;100.00;99757.59;105261;1257;72518;-58
2023/11/13 00:27:29;;;;;;;9.00;6.90;;;;;;;8.83;100.00;99749.38;105749;1259;60413;-58
2023/11/13 00:29:56;;;;;;;9.20;7.20;;;;;;;8.83;100.00;99748.41;105557;1256;60170;-57
2023/11/13 00:32:25;;;;;;;12.40;7.20;;;;;;;8.81;100.00;99755.52;105734;1258;73043;-57
2023/11/13 00:34:54;;;;;;;10.40;8.20;;;;;;;8.80;100.00;99754.81;105510;1258;66921;-56
2023/11/13 00:37:22;;;;;;;11.30;8.10;;;;;;;8.75;100.00;99754.80;105474;1256;72770;-56
2023/11/13 00:39:49;;;;;;;9.30;7.20;;;;;;;8.72;100.00;99758.73;105426;1254;61856;-57
2023/11/13 00:42:17;;;;;;;8.80;6.90;;;;;;;8.65;100.00;99762.25;105542;1257;59677;-57
2023/11/13 00:44:45;;;;;;;11.90;7.00;;;;;;;8.59;100.00;99761.82;105522;1253;70815;-57
2023/11/13 00:47:13;;;;;;;8.70;6.90;;;;;;;8.55;100.00;99762.09;105498;1255;66919;-59
2023/11/13 00:49:40;;;;;;;9.90;7.20;;;;;;;8.52;100.00;99766.17;105709;1257;72749;-57
2023/11/13 00:52:08;;;;;;;9.10;7.30;;;;;;;8.50;100.00;99772.11;105598;1253;61805;-57
2023/11/13 00:54:36;;;;;;;9.60;7.10;;;;;;;8.50;100.00;99770.59;105666;1259;59616;-57
2023/11/13 00:57:04;;;;;;;11.40;7.20;;;;;;;8.50;100.00;99772.83;105776;1254;72919;-58
2023/11/13 00:59:32;;;;;;;10.70;7.60;;;;;;;8.51;100.00;99777.87;105660;1253;67026;-56
2023/11/13 01:02:01;;;;;;;10.50;7.00;;;;;;;8.52;100.00;99781.24;105478;1256;71379;-56
2023/11/13 01:04:29;;;;;;;10.90;7.40;;;;;;;8.55;100.00;99793.98;105814;1253;61055;-56
2023/11/13 01:06:57;;;;;;;11.30;7.80;;;;;;;8.58;100.00;99794.02;105766;1258;59647;-58
2023/11/13 01:09:25;;;;;;;9.60;7.70;;;;;;;8.59;100.00;99797.43;105538;1251;72181;-57
2023/11/13 01:11:53;;;;;;;9.10;7.10;;;;;;;8.62;100.00;99806.49;105722;1257;66959;-56
2023/11/13 01:14:20;;;;;;;9.60;7.50;;;;;;;8.64;100.00;99810.56;105779;1252;71790;-57
2023/11/13 01:16:48;;;;;;;9.50;7.60;;;;;;;8.66;100.00;99816.38;105690;1251;61723;-55
2023/11/13 01:19:16;;;;;;;9.10;7.50;;;;;;;8.68;100.00;99818.57;105569;1253;60079;-55
2023/11/13 01:21:44;;;;;;;8.90;7.60;;;;;;;8.69;100.00;99822.23;105693;1256;72911;-56
2023/11/13 01:24:12;;;;;;;9.80;7.50;;;;;;;8.71;100.00;99822.17;105822;1251;66493;-56
2023/11/13 01:26:40;;;;;;;9.90;7.50;;;;;;;8.73;100.00;99823.23;105777;1257;72890;-58
2023/11/13 01:29:07;;;;;;;10.60;7.70;;;;;;;8.73;100.00;99825.79;105908;1257;61809;-57
2023/11/13 01:31:35;;;;;;;11.60;8.20;;;;;;;8.75;100.00;99826.79;105721;1259;59545;-56
2023/11/13 01:34:05;;;;;;;8.60;7.00;;;;;;;8.76;100.00;99827.34;105692;1258;73015;-57
2023/11/13 01:36:33;;;;;;;10.20;7.90;;;;;;;8.76;100.00;99828.52;105765;1253;65704;-56
2023/11/13 01:39:03;;;;;;;10.50;8.00;;;;;;;8.76;100.00;99829.23;105641;1254;72651;-57
2023/11/13 01:41:34;;;;;;;9.90;7.00;;;;;;;8.76;100.00;99827.34;105469;1258;62048;-56
2023/11/13 01:44:03;;;;;;;13.20;8.40;;;;;;;8.76;100.00;99826.63;105448;1254;59637;-56
2023/11/13 01:46:31;;;;;;;10.30;7.90;;;;;;;8.76;100.00;99831.63;105788;1256;73062;-55
2023/11/13 01:48:59;;;;;;;9.70;7.70;;;;;;;8.76;100.00;99829.75;105752;1259;65776;-56
2023/11/13 01:51:28;;;;;;;10.00;7.40;;;;;;;8.76;100.00;99833.90;105573;1257;72888;-56
2023/11/13 01:53:59;;;;;;;10.80;7.70;;;;;;;8.76;100.00;99833.51;105579;1254;60729;-55
2023/11/13 01:56:27;;;;;;;9.20;7.80;;;;;;;8.76;100.00;99836.30;105583;1254;60422;-56
2023/11/13 02:06:52;;;;;;;11.20;8.10;;;;;;;8.78;100.00;99846.28;103235;1283;617971;-57
2023/11/13 02:09:20;;;;;;;11.20;8.90;;;;;;;8.77;100.00;99844.98;106675;1263;62035;-57
2023/11/13 02:11:47;;;;;;;10.20;8.20;;;;;;;8.79;100.00;99848.30;104933;1265;60129;-59
2023/11/13 02:14:14;;;;;;;12.80;8.60;;;;;;;8.80;100.00;99850.30;105803;1254;72227;-56
2023/11/13 02:16:41;;;;;;;11.10;7.90;;;;;;;8.80;100.00;99850.14;106003;1254;65494;-55
2023/11/13 02:19:08;;;;;;;9.30;8.30;;;;;;;8.80;100.00;99848.90;105787;1256;185146;-56
2023/11/13 02:21:37;;;;;;;10.60;7.90;;;;;;;8.78;100.00;99856.86;105880;1252;61994;-59
2023/11/13 02:24:05;;;;;;;11.20;9.10;;;;;;;8.79;100.00;99854.53;106013;1250;60162;-56
2023/11/13 02:26:31;;;;;;;9.70;7.80;;;;;;;8.78;100.00;99853.55;106186;1252;72256;-57
2023/11/13 02:28:58;;;;;;;9.90;8.00;;;;;;;8.79;100.00;99855.20;105821;1251;68272;-56
2023/11/13 02:31:25;;;;;;;10.70;8.10;;;;;;;8.80;100.00;99856.02;106136;1254;72053;-56
2023/11/13 02:33:53;;;;;;;8.80;7.40;;;;;;;8.79;100.00;99860.05;105936;1251;61905;-57
2023/11/13 02:36:20;;;;;;;10.00;8.00;;;;;;;8.78;100.00;99861.88;106275;1250;60751;-57
2023/11/13 02:38:47;;;;;;;9.30;7.60;;;;;;;8.77;100.00;99861.94;106251;1254;73001;-58
2023/11/13 02:41:14;;;;;;;9.90;8.00;;;;;;;8.77;100.00;99865.70;106207;1251;66405;-57
2023/11/13 02:43:41;;;;;;;9.90;7.70;;;;;;;8.76;100.00;99869.92;105813;1251;72327;-57
2023/11/13 02:46:08;;;;;;;10.90;7.80;;;;;;;8.77;100.00;99874.85;106120;1254;62106;-57
2023/11/13 02:48:36;;;;;;;9.80;7.30;;;;;;;8.77;100.00;99877.65;106325;1250;59992;-56
2023/11/13 02:51:03;;;;;;;8.50;7.10;;;;;;;8.77;100.00;99883.20;106145;1251;71832;-56
2023/11/13 02:53:30;;;;;;;8.50;7.10;;;;;;;8.76;100.00;99879.08;106344;1254;67012;-57
2023/11/13 02:55:57;;;;;;;9.20;7.40;;;;;;;8.76;100.00;99886.03;105955;1251;72504;-56
2023/11/13 02:58:24;;;;;;;9.70;8.00;;;;;;;8.75;100.00;99885.45;106494;1254;61834;-58
2023/11/13 03:00:52;;;;;;;9.20;7.20;;;;;;;8.74;100.00;99885.88;106124;1251;59132;-59
2023/11/13 03:03:20;;;;;;;10.90;8.20;;;;;;;8.73;100.00;99889.19;106074;1250;71196;-56
2023/11/13 03:05:47;;;;;;;11.10;8.50;;;;;;;8.72;100.00;99895.57;106004;1251;66902;-56
2023/11/13 03:08:14;;;;;;;9.10;7.20;;;;;;;8.71;100.00;99894.47;106008;1252;72836;-57
2023/11/13 03:10:41;;;;;;;10.20;7.60;;;;;;;8.69;100.00;99893.58;105954;1252;60438;-62
2023/11/13 03:13:08;;;;;;;9.70;7.80;;;;;;;8.68;100.00;99889.58;106043;1254;59625;-56
2023/11/13 03:15:35;;;;;;;9.50;7.70;;;;;;;8.67;100.00;99895.75;105910;1254;72822;-56
2023/11/13 03:18:02;;;;;;;9.70;7.60;;;;;;;8.65;100.00;99892.33;105941;1251;65911;-57
2023/11/13 03:20:29;;;;;;;10.60;7.90;;;;;;;8.63;100.00;99892.28;106173;1251;72710;-59
2023/11/13 03:22:56;;;;;;;10.60;7.40;;;;;;;8.60;100.00;99900.72;106114;1251;60254;-56
2023/11/13 03:25:23;;;;;;;13.60;8.00;;;;;;;8.57;100.00;99899.60;106011;1254;60147;-56
2023/11/13 03:27:50;;;;;;;8.80;7.50;;;;;;;8.51;100.00;99900.85;105912;1254;73102;-56
2023/11/13 03:30:17;;;;;;;10.10;7.30;;;;;;;8.47;100.00;99905.73;105895;1251;66977;-57
2023/11/13 03:32:44;;;;;;;10.80;8.10;;;;;;;8.41;100.00;99907.74;106115;1254;72655;-57
2023/11/13 03:35:16;;;;;;;9.90;7.80;;;;;;;8.38;100.00;99909.33;105927;1254;60849;-56
2023/11/13 03:37:43;;;;;;;;;;;;;;;8.35;100.00;99909.30;106051;1254;59499;-57
2023/11/13 03:40:11;;;;;;;10.80;8.10;;;;;;;8.32;100.00;99906.04;106118;1254;72917;-56
2023/11/13 03:42:38;;;;;;;10.60;8.20;;;;;;;8.29;100.00;99909.88;106650;1251;66968;-58
2023/11/13 03:45:06;;;;;;;10.40;8.50;;;;;;;8.26;100.00;99921.58;105890;1251;71504;-56
2023/11/13 03:47:33;;;;;;;10.20;7.80;;;;;;;8.25;100.00;99925.02;105806;1251;61118;-57
2023/11/13 03:50:00;;;;;;;12.80;8.70;;;;;;;8.26;100.00;99927.45;105833;1253;60111;-57
2023/11/13 03:52:27;;;;;;;9.10;7.50;;;;;;;8.29;100.00;99938.07;106186;1251;71846;-57
2023/11/13 03:54:54;;;;;;;11.50;8.90;;;;;;;8.29;100.00;99936.60;105752;1254;66999;-56
2023/11/13 03:57:21;;;;;;;10.70;9.20;;;;;;;8.31;100.00;99939.04;106010;1252;72562;-56
2023/11/13 03:59:48;;;;;;;10.90;8.30;;;;;;;8.32;100.00;99937.07;105902;1254;62017;-58
2023/11/13 04:02:15;;;;;;;12.90;9.00;;;;;;;8.32;100.00;99940.04;106176;1250;61182;-56
2023/11/13 04:04:44;;;;;;;10.70;9.20;;;;;;;8.32;100.00;99939.77;106085;1251;71802;-57
2023/11/13 04:07:11;;;;;;;10.40;8.50;;;;;;;8.32;100.00;99939.28;107242;1251;65765;-58
2023/11/13 04:09:38;;;;;;;10.70;8.60;;;;;;;8.32;100.00;99944.48;106019;1251;72568;-56
2023/11/13 04:12:05;;;;;;;12.00;9.20;;;;;;;8.32;100.00;99943.59;106056;1251;61876;-57
2023/11/13 04:14:32;;;;;;;11.80;8.70;;;;;;;8.31;100.00;99949.77;105963;1252;60352;-60
2023/11/13 04:16:59;;;;;;;10.90;7.90;;;;;;;8.32;100.00;99950.11;105849;1254;73068;-56
2023/11/13 04:19:28;;;;;;;12.10;9.10;;;;;;;8.31;100.00;99945.70;105997;1254;68372;-57
2023/11/13 04:21:55;;;;;;;9.60;7.80;;;;;;;8.30;100.00;99946.09;105998;1254;71426;-56
2023/11/13 04:24:22;;;;;;;10.70;8.90;;;;;;;8.28;100.00;99957.91;105980;1252;62224;-56
2023/11/13 04:26:49;;;;;;;10.80;8.30;;;;;;;8.25;100.00;99957.54;106111;1251;59598;-57
2023/11/13 04:29:16;;;;;;;10.30;7.50;;;;;;;8.20;100.00;99965.02;106041;1252;72835;-56
2023/11/13 04:31:45;;;;;;;10.00;8.00;;;;;;;8.13;100.00;99967.22;105895;1254;65852;-56
2023/11/13 04:34:12;;;;;;;12.00;8.40;;;;;;;8.08;100.00;99971.31;105989;1251;70835;-55
2023/11/13 04:36:42;;;;;;;11.60;8.30;;;;;;;8.03;100.00;99969.04;105889;1251;62237;-56
2023/11/13 04:39:09;;;;;;;11.50;9.10;;;;;;;8.00;100.00;99973.48;105928;1253;60074;-56
2023/11/13 04:41:37;;;;;;;11.20;9.00;;;;;;;7.99;100.00;99977.31;106126;1251;73070;-55
2023/11/13 04:44:04;;;;;;;11.80;9.40;;;;;;;7.97;100.00;99979.05;105982;1251;66975;-56
2023/11/13 04:46:31;;;;;;;10.80;8.30;;;;;;;7.96;100.00;99985.55;106019;1251;72910;-56
2023/11/13 04:48:58;;;;;;;11.20;8.50;;;;;;;7.97;100.00;99991.02;106097;1250;61806;-56
2023/11/13 04:51:25;;;;;;;10.90;8.00;;;;;;;7.98;100.00;99995.42;106189;1250;60120;-58
2023/11/13 04:53:52;;;;;;;11.20;8.80;;;;;;;7.98;100.00;99997.46;105960;1251;73067;-57
2023/11/13 04:56:19;;;;;;;11.40;8.60;;;;;;;8.00;100.00;100002.91;106273;1254;65921;-57
2023/11/13 04:58:46;;;;;;;10.40;8.70;;;;;;;8.04;100.00;100007.98;106166;1250;72700;-57
2023/11/13 05:01:13;;;;;;;10.90;8.40;;;;;;;8.09;100.00;100010.48;106081;1251;61981;-57
2023/11/13 05:03:40;;;;;;;11.00;8.60;;;;;;;8.12;100.00;100014.29;106055;1254;59640;-56
2023/11/13 05:06:13;;;;;;;11.30;8.80;;;;;;;8.15;100.00;100019.10;106147;1251;72011;-56
2023/11/13 05:08:41;;;;;;;10.50;8.30;;;;;;;8.18;100.00;100024.47;106406;1251;66556;-57
2023/11/13 05:11:08;;;;;;;13.20;8.40;;;;;;;8.20;100.00;100026.70;106177;1251;72663;-57
2023/11/13 05:13:35;;;;;;;10.80;8.20;;;;;;;8.22;100.00;100028.33;105979;1254;62007;-57
2023/11/13 05:16:03;;;;;;;11.00;8.20;;;;;;;8.25;100.00;100033.96;105835;1251;59990;-59
2023/11/13 05:18:30;;;;;;;10.60;8.00;;;;;;;8.27;100.00;100036.09;105940;1254;73513;-56
2023/11/13 05:20:58;;;;;;;11.20;8.20;;;;;;;8.29;100.00;100042.11;106430;1254;67057;-56
2023/11/13 05:23:26;;;;;;;10.30;8.20;;;;;;;8.32;100.00;100045.39;106005;1251;72732;-58
2023/11/13 05:25:53;;;;;;;10.70;7.40;;;;;;;8.34;100.00;100046.59;106148;1254;60875;-57
2023/11/13 05:28:20;;;;;;;9.60;7.90;;;;;;;8.35;100.00;100050.80;106080;1252;60793;-57
2023/11/13 05:30:47;;;;;;;11.00;8.60;;;;;;;8.31;100.00;100047.61;106374;1254;73675;-57
2023/11/13 05:33:14;;;;;;;14.00;9.00;;;;;;;8.29;100.00;100053.92;106130;1251;67169;-57
2023/11/13 05:35:41;;;;;;;10.90;8.60;;;;;;;8.29;100.00;100051.94;106064;1254;72790;-58
2023/11/13 05:38:08;;;;;;;10.00;8.20;;;;;;;8.34;100.00;100056.61;105947;1250;61996;-57
2023/11/13 05:40:34;;;;;;;10.30;8.40;;;;;;;8.38;100.00;100057.08;106328;1251;59617;-56
2023/11/13 05:43:02;;;;;;;11.40;7.80;;;;;;;8.44;100.00;100062.25;106122;1252;72818;-55
2023/11/13 05:45:29;;;;;;;10.80;8.10;;;;;;;8.51;100.00;100067.30;106170;1252;66893;-55
2023/11/13 05:47:55;;;;;;;11.20;8.30;;;;;;;8.60;100.00;100071.72;105952;1251;72640;-56
2023/11/13 05:50:23;;;;;;;14.10;8.90;;;;;;;8.67;100.00;100076.77;106100;1251;61915;-56
2023/11/13 05:52:51;;;;;;;12.40;8.50;;;;;;;8.73;100.00;100076.30;105865;1254;60155;-56
2023/11/13 05:55:18;;;;;;;10.90;8.30;;;;;;;8.77;100.00;100078.92;106298;1254;72115;-56
2023/11/13 05:57:45;;;;;;;11.80;9.10;;;;;;;8.85;100.00;100084.73;105983;1251;67845;-58
2023/11/13 06:00:12;;;;;;;12.10;8.60;;;;;;;8.91;100.00;100090.50;105886;1252;72655;-59
2023/11/13 06:02:40;;;;;;;11.80;8.40;;;;;;;8.93;100.00;100095.67;106361;1251;62653;-57
2023/11/13 06:05:08;;;;;;;11.00;8.20;;;;;;;8.94;100.00;100098.14;106031;1252;59522;-57
2023/11/13 06:07:36;;;;;;;10.70;8.50;;;;;;;8.94;100.00;100100.23;106116;1254;73084;-57
2023/11/13 06:10:07;;;;;;;11.10;9.20;;;;;;;8.97;100.00;100099.51;106141;1254;66356;-58
2023/11/13 06:12:34;;;;;;;10.60;8.20;;;;;;;8.99;100.00;100096.63;106210;1252;72901;-57
2023/11/13 06:15:01;;;;;;;14.10;8.90;;;;;;;9.04;100.00;100095.95;106171;1254;60921;-58
2023/11/13 06:17:29;;;;;;;12.40;8.50;;;;;;;9.07;100.00;100093.58;106161;1254;59243;-57
2023/11/13 06:19:56;;;;;;;11.40;9.10;;;;;;;9.10;100.00;100099.11;105888;1251;73849;-57
2023/11/13 06:22:23;;;;;;;10.90;8.30;;;;;;;9.10;100.00;100104.31;105927;1254;67141;-56
2023/11/13 06:24:50;;;;;;;11.40;8.40;;;;;;;9.17;100.00;100102.73;106077;1252;72629;-56
2023/11/13 06:27:18;;;;;;;11.80;8.90;;;;;;;9.21;100.00;100100.43;106129;1254;60627;-56
2023/11/13 06:29:45;;;;;;;10.40;8.50;;;;;;;9.24;100.00;100103.45;107220;1252;60344;-57
2023/11/13 06:32:12;;;;;;;10.70;8.30;;;;;;;9.28;100.00;100097.54;106058;1251;73901;-57
2023/11/13 06:34:40;;;;;;;12.60;8.40;;;;;;;9.28;100.00;100101.30;106232;1250;67243;-56
2023/11/13 06:37:07;;;;;;;11.00;8.90;;;;;;;9.25;100.00;100104.24;106042;1251;72662;-56
2023/11/13 06:39:34;;;;;;;13.50;8.20;;;;;;;9.22;100.00;100108.98;106205;1254;60982;-59
2023/11/13 06:42:00;;;;;;;11.00;8.90;;;;;;;9.18;100.00;100111.44;106047;1251;60441;-54
2023/11/13 06:44:27;;;;;;;11.10;8.70;;;;;;;9.14;100.00;100113.46;105945;1250;73149;-56
2023/11/13 06:46:55;;;;;;;11.00;8.10;;;;;;;9.12;100.00;100113.61;105963;1251;67626;-57
2023/11/13 06:49:22;;;;;;;11.00;8.70;;;;;;;9.09;100.00;100121.02;106493;1254;71204;-55
2023/11/13 06:51:49;;;;;;;11.00;8.50;;;;;;;9.06;100.00;100113.24;106024;1254;60958;-56
2023/11/13 06:54:16;;;;;;;11.10;8.40;;;;;;;9.04;100.00;100117.13;105782;1254;60369;-56
2023/11/13 06:56:44;;;;;;;12.30;8.90;;;;;;;9.04;100.00;100119.73;105939;1254;73615;-56
2023/11/13 06:59:11;;;;;;;10.60;8.10;;;;;;;9.03;100.00;100117.23;105917;1254;67000;-55
2023/11/13 07:01:42;;;;;;;11.30;8.30;;;;;;;9.01;100.00;100115.33;105956;1251;71213;-56
2023/11/13 07:04:10;;;;;;;11.70;8.50;;;;;;;9.01;100.00;100116.36;106016;1251;61683;-56
2023/11/13 07:06:37;;;;;;;11.80;8.50;;;;;;;9.01;100.00;100115.09;105999;1252;60300;-57
2023/11/13 07:09:11;;;;;;;10.50;7.60;;;;;;;9.05;100.00;100119.23;106339;1254;73795;-57
2023/11/13 07:11:38;;;;;;;11.10;8.40;;;;;;;9.11;100.00;100120.64;105973;1251;65997;-55
2023/11/13 07:14:08;;;;;;;11.10;8.80;;;;;;;9.19;100.00;100120.55;106417;1251;73101;-57
2023/11/13 07:16:36;;;;;;;10.80;8.80;;;;;;;9.26;100.00;100120.40;106075;1254;60506;-57
2023/11/13 07:19:03;;;;;;;10.70;7.80;;;;;;;9.33;100.00;100125.18;106472;1254;60417;-55
2023/11/13 07:21:31;;;;;;;10.70;8.00;;;;;;;9.42;100.00;100123.27;105897;1254;73737;-57
2023/11/13 07:24:04;;;;;;;10.40;8.00;;;;;;;9.53;100.00;100128.65;106190;1254;67044;-56
2023/11/13 07:26:31;;;;;;;10.00;7.90;;;;;;;9.64;100.00;100128.66;105748;1251;72703;-55
2023/11/13 07:28:58;;;;;;;11.40;8.50;;;;;;;9.75;100.00;100131.76;106131;1254;60810;-55
2023/11/13 07:31:25;;;;;;;8.90;7.50;;;;;;;9.84;100.00;100131.48;106419;1254;60411;-56
2023/11/13 07:33:54;;;;;;;10.40;7.70;;;;;;;9.93;100.00;100131.80;106092;1254;73711;-56
2023/11/13 07:36:23;;;;;;;11.70;7.70;;;;;;;10.01;100.00;100132.93;106117;1252;67235;-55
2023/11/13 07:38:50;;;;;;;11.90;8.60;;;;;;;10.10;100.00;100132.39;105875;1252;72649;-55
2023/11/13 07:41:17;;;;;;;11.10;8.50;;;;;;;10.20;100.00;100129.46;106371;1254;60836;-56
2023/11/13 07:43:44;;;;;;;11.30;7.40;;;;;;;10.26;100.00;100128.34;106346;1251;60948;-60
2023/11/13 07:46:14;;;;;;;10.40;8.10;;;;;;;10.26;100.00;100128.43;106022;1254;73008;-56
2023/11/13 07:48:41;;;;;;;10.40;8.20;;;;;;;10.26;100.00;100127.59;105888;1251;67292;-55
2023/11/13 07:51:08;;;;;;;11.80;9.00;;;;;;;10.28;100.00;100124.13;105849;1252;72657;-56
2023/11/13 07:53:36;;;;;;;9.90;7.80;;;;;;;10.29;100.00;100128.41;105825;1252;60443;-55
2023/11/13 07:56:03;;;;;;;10.90;8.20;;;;;;;10.32;100.00;100133.71;106221;1254;60018;-55
2023/11/13 07:58:30;;;;;;;10.80;8.30;;;;;;;10.34;100.00;100129.45;105980;1250;72324;-55
2023/11/13 08:00:57;;;;;;;11.60;8.20;;;;;;;10.35;100.00;100130.05;105954;1254;67080;-56
2023/11/13 08:03:25;;;;;;;11.00;8.40;;;;;;;10.34;100.00;100127.50;106266;1254;71264;-55
2023/11/13 08:05:52;;;;;;;10.40;7.60;;;;;;;10.34;100.00;100128.23;106136;1251;63083;-56
2023/11/13 08:08:20;;;;;;;9.60;7.40;;;;;;;10.32;100.00;100127.94;106181;1254;60424;-56
2023/11/13 08:10:47;;;;;;;10.60;7.80;;;;;;;10.32;100.00;100127.30;105878;1254;74201;-54
2023/11/13 08:13:14;;;;;;;11.30;8.10;;;;;;;10.34;100.00;100125.82;106259;1254;65757;-54
2023/11/13 08:15:45;;;;;;;10.10;7.20;;;;;;;10.31;100.00;100124.39;106334;1254;72549;-59
2023/11/13 08:18:14;;;;;;;9.80;8.00;;;;;;;10.29;100.00;100121.36;105911;1254;60588;-55
2023/11/13 08:20:44;;;;;;;9.90;7.10;;;;;;;10.30;100.00;100118.65;105953;1254;60358;-54
2023/11/13 08:23:13;;;;;;;11.90;8.20;;;;;;;10.33;100.00;100115.48;105890;1251;73757;-55
2023/11/13 08:25:44;;;;;;;10.70;7.20;;;;;;;10.39;100.00;100115.58;106285;1257;66849;-57
2023/11/13 08:28:12;;;;;;;10.50;7.70;;;;;;;10.47;100.00;100109.92;106235;1257;74025;-57
2023/11/13 08:30:46;;;;;;;10.50;7.90;;;;;;;10.59;100.00;100107.15;105999;1251;61894;-55
2023/11/13 08:33:13;;;;;;;11.20;8.10;;;;;;;10.73;100.00;100106.94;106046;1251;60932;-55
2023/11/13 08:35:41;;;;;;;9.50;7.20;;;;;;;10.88;100.00;100104.23;105961;1255;74767;-56
2023/11/13 08:38:10;;;;;;;9.40;7.00;;;;;;;11.00;100.00;100100.71;105921;1253;67192;-57
2023/11/13 08:40:38;;;;;;;11.00;8.50;;;;;;;11.09;100.00;100092.05;105927;1251;72741;-56
2023/11/13 08:43:10;;;;;;;10.20;8.40;;;;;;;11.12;100.00;100089.48;105968;1257;62011;-56
2023/11/13 08:45:39;;;;;;;11.40;8.10;;;;;;;11.14;100.00;100091.67;106229;1252;60472;-55
2023/11/13 08:48:24;;;;;;;10.70;8.10;;;;;;;11.21;100.00;100091.44;105927;1251;73784;-55
2023/11/13 08:50:53;;;;;;;11.30;8.70;;;;;;;11.31;100.00;100087.40;105949;1256;67387;-56
2023/11/13 08:53:20;;;;;;;12.20;8.40;;;;;;;11.36;100.00;100081.96;105812;1256;72683;-56
2023/11/13 08:55:47;;;;;;;15.10;8.60;;;;;;;11.35;100.00;100080.67;105838;1256;60418;-56
2023/11/13 08:58:14;;;;;;;9.90;7.70;;;;;;;11.34;100.00;100079.60;105849;1255;61274;-56
2023/11/13 09:00:43;;;;;;;11.40;8.00;;;;;;;11.34;100.00;100076.67;106071;1255;74453;-56
2023/11/13 09:03:15;;;;;;;8.90;7.80;;;;;;;11.41;100.00;100077.64;105834;1256;66437;-56
2023/11/13 09:05:42;;;;;;;9.70;7.20;;;;;;;11.58;100.00;100067.02;105843;1257;74247;-56
2023/11/13 09:08:09;;;;;;;11.10;7.40;;;;;;;11.68;100.00;100064.37;105869;1252;61913;-55
2023/11/13 09:10:37;;;;;;;10.60;7.90;;;;;;;11.67;100.00;100060.67;106194;1256;60716;-57
2023/11/13 09:13:05;;;;;;;11.50;8.80;;;;;;;11.61;100.00;100059.45;106007;1252;75157;-55
2023/11/13 09:15:33;;;;;;;8.80;6.80;;;;;;;11.57;100.00;100057.05;105978;1251;66952;-56
2023/11/13 09:18:05;;;;;;;8.70;6.30;;;;;;;11.53;100.00;100055.95;106046;1254;73466;-55
2023/11/13 09:20:32;;;;;;;9.40;7.10;;;;;;;11.53;100.00;100054.08;106106;1251;61873;-57
2023/11/13 09:23:02;;;;;;;8.80;7.00;;;;;;;11.59;100.00;100051.69;105900;1263;59512;-57
2023/11/13 09:25:31;;;;;;;9.50;6.80;;;;;;;11.68;100.00;100047.55;105969;1254;74028;-57
2023/11/13 09:27:59;;;;;;;10.60;7.90;;;;;;;11.80;100.00;100043.54;106082;1251;67555;-57
2023/11/13 09:30:26;;;;;;;8.60;6.90;;;;;;;11.97;100.00;100047.27;106490;1251;72669;-55
2023/11/13 09:32:53;;;;;;;8.90;6.80;;;;;;;12.12;100.00;100046.11;105848;1251;60413;-55
2023/11/13 09:35:22;;;;;;;11.20;7.10;;;;;;;12.23;100.00;100044.39;106232;1253;61724;-55
2023/11/13 09:37:50;;;;;;;10.10;7.50;;;;;;;12.23;100.00;100046.52;106095;1251;72635;-56
2023/11/13 09:40:19;;;;;;;12.40;9.60;;;;;;;12.17;100.00;100046.59;105953;1252;67870;-56
2023/11/13 09:42:53;;;;;;;11.10;7.00;;;;;;;12.16;100.00;100044.27;106463;1251;74407;-57
2023/11/13 09:45:20;;;;;;;10.10;7.70;;;;;;;12.23;100.00;100048.29;107204;1252;60529;-57
2023/11/13 09:47:49;;;;;;;11.50;8.50;;;;;;;12.25;100.00;100045.67;105799;1257;61391;-56
2023/11/13 09:50:16;;;;;;;13.20;9.40;;;;;;;12.16;100.00;100043.05;105917;1254;73698;-60
2023/11/13 09:52:57;;;;;;;13.00;9.70;;;;;;;11.96;100.00;100044.29;106188;1252;67857;-57
2023/11/13 09:55:28;;;;;;;14.40;10.00;;;;;;;11.74;100.00;100046.48;105709;1257;74347;-56
2023/11/13 09:57:56;;;;;;;12.10;8.80;;;;;;;11.59;100.00;100051.25;106019;1254;61752;-56
2023/11/13 10:00:25;;;;;;;14.60;10.40;;;;;;;11.48;100.00;100055.25;105981;1256;61024;-56
2023/11/13 10:02:55;;;;;;;12.30;9.20;;;;;;;11.37;100.00;100058.41;106426;1251;72685;-55
2023/11/13 10:05:26;;;;;;;16.00;11.30;;;;;;;11.31;100.00;100058.87;106003;1257;69065;-55
2023/11/13 10:07:53;;;;;;;14.00;10.10;;;;;;;11.35;100.00;100063.06;105885;1256;73106;-56
2023/11/13 10:10:23;;;;;;;16.00;11.80;;;;;;;11.43;100.00;100059.69;105746;1251;60504;-56
2023/11/13 10:13:09;;;;;;;12.00;8.40;;;;;;;11.48;100.00;100056.80;105882;1250;60877;-56
2023/11/13 10:15:37;;;;;;;11.50;7.70;;;;;;;11.40;100.00;100058.34;106680;1254;72657;-60
2023/11/13 10:18:04;;;;;;;11.60;9.00;;;;;;;11.30;100.00;100061.17;106252;1254;67291;-57
2023/11/13 10:20:32;;;;;;;14.10;9.70;;;;;;;11.24;100.00;100068.52;106048;1257;73177;-57
2023/11/13 10:23:06;;;;;;;14.40;10.50;;;;;;;11.23;100.00;100062.42;106171;1252;60496;-57
2023/11/13 10:25:41;;;;;;;13.40;9.50;;;;;;;11.13;100.00;100069.98;106223;1256;61080;-58
2023/11/13 10:28:08;;;;;;;15.50;10.20;;;;;;;11.09;100.00;100073.70;105779;1264;73763;-57
2023/11/13 10:30:50;;;;;;;14.20;10.20;;;;;;;11.03;100.00;100075.70;106035;1257;66065;-58
2023/11/13 10:33:18;;;;;;;13.90;9.70;;;;;;;10.95;100.00;100077.13;105846;1254;73344;-57
2023/11/13 10:35:48;;;;;;;12.30;8.70;;;;;;;10.90;100.00;100078.06;106292;1251;61035;-57
2023/11/13 10:38:20;;;;;;;10.60;8.30;;;;;;;10.86;100.00;100083.94;106009;1254;60298;-56
2023/11/13 10:40:55;;;;;;;10.20;8.00;;;;;;;10.81;100.00;100086.02;105897;1254;73741;-57
2023/11/13 10:43:32;;;;;;;12.40;9.60;;;;;;;10.78;100.00;100087.80;106117;1254;65670;-56
2023/11/13 10:46:00;;;;;;;11.40;8.20;;;;;;;10.77;100.00;100085.95;106032;1257;74281;-57
2023/11/13 10:48:42;;;;;;;12.10;8.70;;;;;;;10.76;100.00;100087.69;106037;1253;60612;-57
2023/11/13 10:51:13;;;;;;;10.20;8.00;;;;;;;10.74;100.00;100085.87;105961;1255;60711;-60
2023/11/13 10:53:42;;;;;;;11.80;9.00;;;;;;;10.74;100.00;100081.70;105839;1252;75506;-59
2023/11/13 10:56:09;;;;;;;12.30;8.50;;;;;;;10.78;100.00;100080.85;105770;1251;67458;-55
2023/11/13 10:58:37;;;;;;;12.60;9.10;;;;;;;10.92;100.00;100083.60;106047;1254;73084;-56
2023/11/13 11:01:08;;;;;;;12.50;9.20;;;;;;;11.23;100.00;100077.77;106113;1252;60842;-55
2023/11/13 11:03:37;;;;;;;12.20;8.80;;;;;;;11.58;100.00;100076.74;105641;1258;61587;-56
2023/11/13 11:06:11;;;;;;;12.10;8.50;;;;;;;11.72;100.00;100072.27;105749;1254;75944;-57
2023/11/13 11:08:38;;;;;;;12.40;8.10;;;;;;;11.73;100.00;100069.86;106044;1251;68700;-61
2023/11/13 11:11:06;;;;;;;11.60;8.60;;;;;;;11.67;100.00;100071.73;105830;1250;74639;-57
2023/11/13 11:13:35;;;;;;;11.50;7.70;;;;;;;11.60;100.00;100075.95;105843;1256;63508;-57
2023/11/13 11:16:15;;;;;;;11.90;8.40;;;;;;;11.54;100.00;100072.23;105773;1254;61906;-57
2023/11/13 11:18:47;;;;;;;11.30;8.10;;;;;;;11.38;100.00;100070.50;106199;1256;75187;-57
2023/11/13 11:21:53;;;;;;;10.30;7.80;;;;;;;11.21;100.00;100068.52;105979;1257;67611;-57
2023/11/13 11:24:43;;;;;;;12.00;8.20;;;;;;;11.05;100.00;100067.86;106180;1254;72986;-56